Shishmaref, AK

11:26 PM AKDT on July 29, 2016 (GMT -0800)
New Shishmaref | | Change Station

Elev 13 ft 66.25 °N, 166.09 °W | Updated 10 minutes ago

Mostly Cloudy
Mostly Cloudy
43 °F
Feels Like 36 °F
N
14
Wind Variable Wind from North

Today
High -- | Low -- °F
--% Chance of Precip.
Yesterday
High -- | Low -- °F
Precip. -- in
Pressure 29.95 in
Visibility 9.0 miles
Clouds Mostly Cloudy 1800 ft
Windchill 36 °F
Dew Point 34 °F
Humidity 70%
Rainfall 0.00 in
Snow Depth Not available.
5:37 AM 0:40 AM
Waning Crescent, 15% visible
METAR PASH 300716Z AUTO 35012KT 9SM BKN018 06/01 A2995 RMK AO1 PNO
Pressure 29.95 in
Visibility 9.0 miles
Clouds Mostly Cloudy 1800 ft
Windchill 36 °F
Dew Point 34 °F
Humidity 70%
Rainfall 0.00 in
Snow Depth Not available.
5:37 AM 0:40 AM
Waning Crescent, 15% visible
METAR PASH 300716Z AUTO 35012KT 9SM BKN018 06/01 A2995 RMK AO1 PNO

10-Day Weather Forecast

Almanac

Astronomy

Jul. 29, 2016 Rise Set
Actual Time
Civil Twilight
Nautical Twilight
Astronomical Twilight
Moon
Length of Visible Light
Length of Day
Tomorrow will be .
, % of the Moon is Illuminated

Today's Extremes

State Highs State Lows

Community

WunderPhotos

Upload Photos

1,928,508 photos uploaded!

WunderBlog® & News

Nearby

Air Quality

  Air Quality AQ Index Pollutant
Not available.

Snow Depth

Station Depth Elevation

Earthquake Activity

City Distance Mag. Time & Date
Minimum magnitude displayed is 2.5.

Coastal Water Temperatures

Place Temperature

Stations

Nearby Weather Stations

Station Location Temp. Windchill Dew Point Humidity Wind Precip. Elev Updated Type
                   

Watches & Warnings

There are currently no watches in effect.